Time;durP1;ratioP1;P1;durP2;ratioP2;P2;SDS_P1;SDS_P2;PMS_P1;PMS_P2;Temp;Humidity;BMP_temperature;BMP_pressure;BME280_temperature;BME280_humidity;BME280_pressure;Samples;Min_cycle;Max_cycle;Signal;HPM_P1;HPM_P2
2022/06/15 00:02:08;;;;;;;3.17;1.30;;;18.10;99.90;;;;;;5113379;28;20024;-64
2022/06/15 00:04:34;;;;;;;2.13;1.05;;;18.10;99.90;;;;;;5113577;28;20056;-66
2022/06/15 00:07:00;;;;;;;1.77;1.00;;;18.10;99.90;;;;;;5113698;28;20067;-67
2022/06/15 00:09:27;;;;;;;0.80;0.80;;;18.00;99.90;;;;;;5113719;28;20059;-68
2022/06/15 00:11:53;;;;;;;1.92;0.98;;;18.00;99.90;;;;;;5113670;28;20019;-68
2022/06/15 00:14:25;;;;;;;0.95;0.88;;;18.00;99.90;;;;;;5113306;28;20522;-66
2022/06/15 00:16:51;;;;;;;1.20;1.10;;;18.00;99.90;;;;;;5113522;28;20382;-68
2022/06/15 00:19:18;;;;;;;1.63;1.10;;;17.90;99.90;;;;;;5113591;28;20049;-70
2022/06/15 00:21:44;;;;;;;2.00;1.10;;;17.90;99.90;;;;;;5114034;28;20381;-69
2022/06/15 00:24:10;;;;;;;2.40;1.45;;;17.90;99.90;;;;;;5117274;28;20027;-62
2022/06/15 00:26:36;;;;;;;1.00;0.90;;;17.90;99.90;;;;;;5117208;28;20028;-60
2022/06/15 00:29:02;;;;;;;1.35;1.10;;;17.80;99.90;;;;;;5117019;28;20405;-65
2022/06/15 00:31:28;;;;;;;1.45;1.27;;;17.70;99.90;;;;;;5117090;28;20024;-68
2022/06/15 00:33:54;;;;;;;1.67;1.40;;;17.60;99.90;;;;;;5116948;28;20048;-66
2022/06/15 00:36:21;;;;;;;1.35;1.15;;;17.60;99.90;;;;;;5116928;28;20020;-68
2022/06/15 00:38:58;;;;;;;2.33;0.98;;;17.60;99.90;;;;;;5116980;28;20074;-63
2022/06/15 00:41:34;;;;;;;1.60;0.85;;;17.60;99.90;;;;;;5116788;28;20023;-66
2022/06/15 00:44:21;;;;;;;1.23;1.10;;;17.60;99.90;;;;;;5116781;28;20516;-71
2022/06/15 00:46:49;;;;;;;1.42;1.00;;;17.60;99.90;;;;;;5116365;28;20094;-65
2022/06/15 00:49:24;;;;;;;2.05;0.93;;;17.50;99.90;;;;;;5116589;28;20023;-68
2022/06/15 00:51:53;;;;;;;1.48;0.93;;;17.50;99.90;;;;;;5116661;28;20027;-70
2022/06/15 00:54:21;;;;;;;0.80;0.70;;;17.40;99.90;;;;;;5116391;28;20050;-61
2022/06/15 00:56:47;;;;;;;1.00;0.90;;;17.40;99.90;;;;;;5116671;28;20402;-64
2022/06/15 00:59:19;;;;;;;1.17;1.05;;;17.40;99.90;;;;;;5116719;28;20112;-69
2022/06/15 01:01:45;;;;;;;2.88;1.27;;;17.40;99.90;;;;;;5116185;28;20024;-69
2022/06/15 01:04:12;;;;;;;1.10;0.85;;;17.30;99.90;;;;;;5116698;28;20035;-67
2022/06/15 01:06:52;;;;;;;1.55;1.00;;;17.20;99.90;;;;;;5116434;28;20031;-64
2022/06/15 01:09:23;;;;;;;2.45;1.10;;;17.20;99.90;;;;;;5116190;28;20580;-65
2022/06/15 01:11:52;;;;;;;1.55;1.20;;;17.20;99.90;;;;;;5116227;28;20023;-62
2022/06/15 01:14:45;;;;;;;1.23;1.00;;;17.10;99.90;;;;;;5116289;28;20028;-67
2022/06/15 01:17:37;;;;;;;1.55;1.00;;;17.10;99.90;;;;;;5116406;28;20020;-68
2022/06/15 01:20:05;;;;;;;2.53;1.00;;;17.00;99.90;;;;;;5115967;28;20530;-69
2022/06/15 01:22:56;;;;;;;1.23;1.00;;;17.00;99.90;;;;;;5097910;28;20427;-66
2022/06/15 01:25:43;;;;;;;1.33;1.08;;;17.00;99.90;;;;;;5115933;28;20023;-63
2022/06/15 01:28:27;;;;;;;1.20;1.10;;;17.00;99.90;;;;;;5115888;28;20424;-66
2022/06/15 01:31:13;;;;;;;1.23;0.80;;;16.90;99.90;;;;;;5115744;28;20050;-64
2022/06/15 01:33:53;;;;;;;0.90;0.90;;;16.90;99.90;;;;;;5114992;28;20085;-69
2022/06/15 01:36:32;;;;;;;3.03;1.20;;;16.90;99.90;;;;;;5115785;28;20058;-63
2022/06/15 01:39:25;;;;;;;1.10;0.80;;;16.90;99.90;;;;;;5115709;28;20591;-68
2022/06/15 01:42:09;;;;;;;1.27;1.17;;;16.90;99.90;;;;;;5115750;28;20028;-64
2022/06/15 01:44:39;;;;;;;1.10;1.00;;;16.80;99.90;;;;;;5115595;28;20359;-60
2022/06/15 01:47:10;;;;;;;2.03;1.13;;;16.80;99.90;;;;;;5115756;28;20444;-68
2022/06/15 01:50:10;;;;;;;1.23;1.13;;;16.70;99.90;;;;;;5115598;28;20028;-68
2022/06/15 01:52:54;;;;;;;1.63;1.13;;;16.70;99.90;;;;;;5084043;28;20035;-67
2022/06/15 01:55:27;;;;;;;1.10;0.95;;;16.60;99.90;;;;;;5115296;28;20023;-69
2022/06/15 01:57:58;;;;;;;1.17;1.08;;;16.60;99.90;;;;;;5115352;28;20397;-67
2022/06/15 02:00:25;;;;;;;1.40;0.82;;;16.60;99.90;;;;;;5115493;28;20427;-66
2022/06/15 02:03:10;;;;;;;1.58;1.25;;;16.60;99.90;;;;;;5115436;28;20102;-68
2022/06/15 02:05:56;;;;;;;2.45;0.90;;;16.50;99.90;;;;;;5115549;28;20015;-65
2022/06/15 02:08:36;;;;;;;0.85;0.85;;;16.50;99.90;;;;;;5115240;28;20022;-68
2022/06/15 02:11:15;;;;;;;2.05;1.17;;;16.50;99.90;;;;;;5115237;28;20073;-69
2022/06/15 02:13:46;;;;;;;1.10;1.00;;;16.50;99.90;;;;;;5115056;28;20035;-62
2022/06/15 02:16:19;;;;;;;1.45;1.27;;;16.40;99.90;;;;;;5115257;28;20035;-66
2022/06/15 02:18:46;;;;;;;1.75;1.40;;;16.40;99.90;;;;;;5114912;28;20095;-66
2022/06/15 02:21:19;;;;;;;3.03;1.05;;;16.40;99.90;;;;;;5115154;28;20024;-68
2022/06/15 02:23:49;;;;;;;1.53;1.00;;;16.40;99.90;;;;;;5114856;28;20571;-67
2022/06/15 02:26:17;;;;;;;1.20;1.10;;;16.40;99.90;;;;;;5114874;28;20016;-66
2022/06/15 02:28:50;;;;;;;2.92;1.23;;;16.20;99.90;;;;;;5114755;28;20054;-61
2022/06/15 02:31:16;;;;;;;1.43;1.03;;;16.20;99.90;;;;;;5114626;28;20493;-64
2022/06/15 02:33:51;;;;;;;1.00;0.90;;;16.20;99.90;;;;;;5114647;28;20278;-68
2022/06/15 02:36:17;;;;;;;0.90;0.90;;;16.10;99.90;;;;;;5114924;28;20027;-67
2022/06/15 02:38:46;;;;;;;0.82;0.82;;;16.10;99.90;;;;;;5114504;28;20063;-65
2022/06/15 02:41:12;;;;;;;1.48;1.10;;;16.10;99.90;;;;;;5114624;28;20019;-64
2022/06/15 02:43:40;;;;;;;1.95;1.50;;;16.10;99.90;;;;;;5114390;28;20027;-68
2022/06/15 02:46:07;;;;;;;1.67;1.52;;;16.00;99.90;;;;;;5115014;28;20109;-71
2022/06/15 02:48:34;;;;;;;1.80;1.33;;;16.00;99.90;;;;;;5114351;28;20485;-66
2022/06/15 02:51:02;;;;;;;1.50;1.23;;;15.90;99.90;;;;;;5114465;28;20521;-69
2022/06/15 02:53:31;;;;;;;1.15;0.90;;;15.90;99.90;;;;;;5114200;28;20059;-63
2022/06/15 02:55:58;;;;;;;1.27;1.17;;;15.90;99.90;;;;;;5114546;28;20107;-63
2022/06/15 02:58:33;;;;;;;1.17;1.08;;;15.90;99.90;;;;;;5113878;28;20436;-67
2022/06/15 03:00:59;;;;;;;1.58;0.90;;;16.00;99.90;;;;;;5114117;28;20077;-69
2022/06/15 03:03:27;;;;;;;2.00;1.10;;;15.90;99.90;;;;;;5114441;28;20069;-68
2022/06/15 03:05:53;;;;;;;1.10;1.00;;;16.00;99.90;;;;;;5114131;28;20012;-62
2022/06/15 03:08:20;;;;;;;1.42;1.08;;;15.90;99.90;;;;;;5114073;28;20054;-67
2022/06/15 03:10:45;;;;;;;1.33;1.20;;;15.90;99.90;;;;;;5114122;28;20026;-71
2022/06/15 03:13:12;;;;;;;1.17;1.08;;;15.90;99.90;;;;;;5113916;28;20102;-66
2022/06/15 03:15:37;;;;;;;1.40;0.85;;;15.80;99.90;;;;;;5113878;28;20474;-68
2022/06/15 03:18:03;;;;;;;1.55;1.00;;;15.80;99.90;;;;;;5114103;28;20024;-66
2022/06/15 03:20:29;;;;;;;1.27;1.05;;;15.80;99.90;;;;;;5113809;28;20024;-69
2022/06/15 03:22:55;;;;;;;1.63;1.20;;;15.80;99.90;;;;;;5114074;28;20057;-69
2022/06/15 03:25:21;;;;;;;2.05;1.20;;;15.70;99.90;;;;;;5114107;28;20024;-65
2022/06/15 03:27:48;;;;;;;3.25;1.70;;;15.70;99.90;;;;;;5113983;28;20084;-62
2022/06/15 03:30:14;;;;;;;1.85;1.30;;;15.60;99.90;;;;;;5114184;28;20020;-60
2022/06/15 03:32:39;;;;;;;1.38;1.20;;;15.40;99.90;;;;;;5114146;28;20439;-66
2022/06/15 03:35:06;;;;;;;2.05;1.50;;;15.50;99.90;;;;;;5113663;28;20063;-66
2022/06/15 03:37:32;;;;;;;2.17;1.42;;;15.50;99.90;;;;;;5113982;28;20366;-65
2022/06/15 03:39:58;;;;;;;1.38;1.05;;;15.40;99.90;;;;;;5114010;28;20016;-64
2022/06/15 03:42:25;;;;;;;1.30;1.20;;;15.40;99.90;;;;;;5113787;28;20023;-64
2022/06/15 03:44:53;;;;;;;2.05;1.30;;;15.50;99.90;;;;;;5113638;28;20023;-69
2022/06/15 03:47:20;;;;;;;1.85;1.38;;;15.50;99.90;;;;;;5113699;28;20030;-72
2022/06/15 03:49:52;;;;;;;1.33;1.20;;;15.50;99.90;;;;;;5113969;28;20027;-66
2022/06/15 03:52:20;;;;;;;2.47;1.50;;;15.60;99.90;;;;;;5113468;28;20106;-71
2022/06/15 03:54:46;;;;;;;1.98;1.30;;;15.60;99.90;;;;;;5113384;28;20114;-63
2022/06/15 03:57:14;;;;;;;2.50;1.40;;;15.70;99.90;;;;;;5114826;28;20131;-64
2022/06/15 03:59:41;;;;;;;2.10;1.77;;;15.70;99.90;;;;;;5117816;28;20106;-63
2022/06/15 04:02:06;;;;;;;2.30;1.80;;;15.70;99.90;;;;;;5117913;28;20023;-62
2022/06/15 04:04:33;;;;;;;3.80;1.73;;;15.70;99.90;;;;;;5117548;28;20019;-65
2022/06/15 04:06:59;;;;;;;1.75;1.58;;;15.70;99.90;;;;;;5117345;28;20059;-71
2022/06/15 04:09:26;;;;;;;2.17;1.60;;;15.70;99.90;;;;;;5117549;28;20024;-71
2022/06/15 04:12:01;;;;;;;2.08;1.50;;;15.70;99.90;;;;;;5117455;28;20099;-67
2022/06/15 04:14:31;;;;;;;2.30;1.60;;;15.70;99.90;;;;;;5117246;28;20106;-64
2022/06/15 04:16:56;;;;;;;2.38;1.70;;;15.80;99.90;;;;;;5117462;28;20030;-64
2022/06/15 04:19:25;;;;;;;1.90;1.52;;;15.90;99.90;;;;;;5117282;28;20023;-69
2022/06/15 04:21:50;;;;;;;3.17;1.63;;;15.90;99.90;;;;;;5117291;28;20490;-72
2022/06/15 04:24:18;;;;;;;2.17;1.60;;;15.90;99.90;;;;;;5116868;28;20126;-65
2022/06/15 04:26:45;;;;;;;2.42;1.48;;;15.90;99.90;;;;;;5117328;28;20156;-65
2022/06/15 04:29:12;;;;;;;2.20;1.98;;;15.90;99.90;;;;;;5117201;28;20084;-68
2022/06/15 04:31:38;;;;;;;2.50;1.90;;;16.00;99.90;;;;;;5117282;28;20102;-67
2022/06/15 04:34:05;;;;;;;2.97;1.88;;;15.90;99.90;;;;;;5116879;28;20498;-68
2022/06/15 04:36:31;;;;;;;4.05;2.33;;;15.90;99.90;;;;;;5116746;28;20462;-62
2022/06/15 04:38:57;;;;;;;4.28;1.90;;;15.80;99.90;;;;;;5116632;28;20020;-68
2022/06/15 04:41:23;;;;;;;2.22;1.70;;;15.80;99.90;;;;;;5116970;28;20034;-71
2022/06/15 04:43:48;;;;;;;2.00;1.80;;;15.80;99.90;;;;;;5116591;28;20055;-64
2022/06/15 04:46:14;;;;;;;4.47;2.30;;;15.80;99.90;;;;;;5116668;28;20019;-63
2022/06/15 04:48:41;;;;;;;4.20;1.95;;;15.90;99.90;;;;;;5116485;28;20028;-60
2022/06/15 04:51:15;;;;;;;3.58;2.47;;;15.80;99.90;;;;;;5116440;28;20090;-69
2022/06/15 04:53:41;;;;;;;2.25;2.13;;;15.80;99.90;;;;;;5116352;28;20378;-63
2022/06/15 04:56:07;;;;;;;1.98;1.77;;;15.90;99.90;;;;;;5116157;28;20020;-66
2022/06/15 04:58:33;;;;;;;2.38;1.80;;;15.90;99.90;;;;;;5131331;27;20375;-59
2022/06/15 05:00:59;;;;;;;2.25;1.70;;;16.00;99.90;;;;;;5119212;27;20092;-65
2022/06/15 05:03:24;;;;;;;1.90;1.70;;;16.20;99.90;;;;;;5116477;28;20031;-56
2022/06/15 05:05:56;;;;;;;3.85;2.28;;;16.20;99.90;;;;;;5130892;27;20023;-54
2022/06/15 05:08:22;;;;;;;2.88;2.10;;;16.20;99.90;;;;;;5134214;27;20019;-59
2022/06/15 05:10:48;;;;;;;4.72;1.92;;;16.20;99.90;;;;;;5135705;27;20031;-61
2022/06/15 05:13:14;;;;;;;3.10;2.13;;;16.30;99.90;;;;;;5134526;27;20508;-55
2022/06/15 05:15:39;;;;;;;4.53;2.47;;;16.30;99.90;;;;;;5141284;27;20034;-60
2022/06/15 05:18:06;;;;;;;5.13;2.50;;;16.30;99.90;;;;;;5132299;27;20362;-60
2022/06/15 05:20:37;;;;;;;3.63;2.53;;;16.30;99.90;;;;;;5124289;27;20008;-57
2022/06/15 05:23:02;;;;;;;2.83;2.20;;;16.40;99.90;;;;;;5121234;27;20024;-54
2022/06/15 05:25:28;;;;;;;4.88;2.50;;;16.50;99.90;;;;;;5123970;27;20042;-61
2022/06/15 05:27:54;;;;;;;6.43;2.78;;;16.60;99.90;;;;;;5121626;27;20904;-57
2022/06/15 05:30:20;;;;;;;5.05;2.20;;;16.50;99.90;;;;;;5126772;27;20027;-58
2022/06/15 05:32:45;;;;;;;3.38;2.10;;;16.60;99.90;;;;;;5120626;27;20028;-62
2022/06/15 05:35:11;;;;;;;2.20;2.00;;;16.70;99.90;;;;;;5119876;27;20478;-65
2022/06/15 05:37:38;;;;;;;3.30;2.22;;;16.90;99.90;;;;;;5119245;27;20027;-55
2022/06/15 05:40:04;;;;;;;3.50;2.60;;;17.10;99.90;;;;;;5119500;27;20055;-62
2022/06/15 05:42:30;;;;;;;6.78;2.70;;;17.10;99.90;;;;;;5117090;27;20377;-60
2022/06/15 05:44:56;;;;;;;3.75;2.78;;;17.20;99.90;;;;;;5119953;27;20035;-60
2022/06/15 05:47:22;;;;;;;5.88;2.75;;;17.40;99.90;;;;;;5118533;27;20027;-59
2022/06/15 05:49:47;;;;;;;2.78;2.10;;;17.50;99.90;;;;;;5117748;27;20115;-63
2022/06/15 05:52:13;;;;;;;4.13;2.45;;;17.60;99.90;;;;;;5117995;27;20031;-65
2022/06/15 05:54:39;;;;;;;2.65;1.90;;;17.80;99.90;;;;;;5119993;27;20028;-62
2022/06/15 05:57:20;;;;;;;2.03;1.83;;;17.90;99.90;;;;;;5125001;27;20027;-59
2022/06/15 05:59:46;;;;;;;7.30;3.40;;;18.00;99.90;;;;;;5121881;27;20031;-65
2022/06/15 06:02:14;;;;;;;3.30;2.63;;;18.10;99.90;;;;;;5128876;27;20023;-67
2022/06/15 06:04:39;;;;;;;3.05;2.10;;;18.10;99.90;;;;;;5123662;27;20106;-59
2022/06/15 06:07:05;;;;;;;2.97;2.00;;;18.30;99.90;;;;;;5128205;27;20106;-54
2022/06/15 06:09:31;;;;;;;2.10;1.60;;;18.40;99.90;;;;;;5127784;27;20027;-55
2022/06/15 06:11:57;;;;;;;2.70;1.80;;;18.60;99.90;;;;;;5127657;27;20030;-62
2022/06/15 06:14:23;;;;;;;2.45;1.60;;;18.70;99.90;;;;;;5129371;27;20027;-65
2022/06/15 06:16:49;;;;;;;2.13;1.80;;;18.90;99.90;;;;;;5134826;27;20034;-53
2022/06/15 06:19:15;;;;;;;2.10;1.80;;;19.00;99.90;;;;;;5117622;27;20031;-52
2022/06/15 06:21:43;;;;;;;2.28;1.85;;;19.20;99.80;;;;;;5114278;27;20035;-61
2022/06/15 06:24:09;;;;;;;3.20;2.53;;;19.30;99.40;;;;;;5147266;27;20030;-66
2022/06/15 06:26:36;;;;;;;2.72;2.08;;;19.40;99.30;;;;;;5142216;27;20027;-65
2022/06/15 06:29:02;;;;;;;2.88;2.17;;;19.40;99.00;;;;;;5132038;27;20047;-59
2022/06/15 06:31:28;;;;;;;4.53;2.55;;;19.60;98.50;;;;;;5131732;27;20035;-61
2022/06/15 06:33:55;;;;;;;2.00;1.88;;;19.70;99.90;;;;;;5132091;27;20114;-61
2022/06/15 06:36:23;;;;;;;2.10;1.70;;;19.80;99.60;;;;;;5128055;27;20023;-61
2022/06/15 06:38:49;;;;;;;2.70;1.90;;;20.00;98.90;;;;;;5121523;27;20031;-60
2022/06/15 06:41:21;;;;;;;4.22;1.90;;;20.10;99.30;;;;;;5135768;27;20110;-64
2022/06/15 06:43:47;;;;;;;4.65;2.42;;;20.20;99.50;;;;;;5125125;27;20512;-56
2022/06/15 06:46:12;;;;;;;3.80;1.85;;;20.40;99.90;;;;;;5127438;27;20028;-59
2022/06/15 06:48:38;;;;;;;2.88;2.00;;;20.50;99.60;;;;;;5125893;27;20027;-59
2022/06/15 06:51:04;;;;;;;4.30;2.10;;;20.70;98.40;;;;;;5148704;27;20038;-55
2022/06/15 06:53:30;;;;;;;3.60;2.40;;;20.70;97.70;;;;;;5131393;27;20023;-63
2022/06/15 06:56:00;;;;;;;2.60;2.25;;;20.80;97.10;;;;;;5128584;27;20019;-58
2022/06/15 06:58:26;;;;;;;2.05;1.85;;;20.90;98.10;;;;;;5121368;27;20054;-62
2022/06/15 07:00:52;;;;;;;4.15;2.42;;;21.00;96.90;;;;;;5120351;27;20024;-61
2022/06/15 07:03:17;;;;;;;4.28;2.70;;;21.10;97.20;;;;;;5111826;28;20023;-63
2022/06/15 07:05:44;;;;;;;5.35;3.13;;;21.20;96.60;;;;;;5127193;27;20027;-61
2022/06/15 07:08:12;;;;;;;7.55;3.10;;;21.30;95.70;;;;;;5124516;27;20019;-64
2022/06/15 07:10:38;;;;;;;4.93;3.15;;;21.40;97.10;;;;;;5130918;27;20030;-62
2022/06/15 07:13:04;;;;;;;5.65;3.20;;;21.50;98.40;;;;;;5131074;27;20027;-63
2022/06/15 07:15:30;;;;;;;4.63;3.20;;;21.60;98.60;;;;;;5116246;27;20020;-54
2022/06/15 07:18:00;;;;;;;3.28;2.97;;;21.70;98.00;;;;;;5112305;28;20047;-64
2022/06/15 07:20:26;;;;;;;3.75;2.72;;;21.80;97.60;;;;;;5111849;28;20042;-62
2022/06/15 07:22:52;;;;;;;3.70;2.60;;;21.90;97.90;;;;;;5110412;28;20536;-61
2022/06/15 07:25:18;;;;;;;3.47;2.47;;;22.10;98.80;;;;;;5120683;27;20063;-64
2022/06/15 07:27:44;;;;;;;2.67;2.00;;;22.30;98.00;;;;;;5130227;28;20485;-62
2022/06/15 07:30:19;;;;;;;4.78;2.53;;;22.50;97.40;;;;;;5131788;28;20024;-66
2022/06/15 07:32:45;;;;;;;3.08;2.40;;;22.60;96.40;;;;;;5131369;27;20091;-64
2022/06/15 07:35:15;;;;;;;4.88;2.40;;;22.60;97.00;;;;;;5131050;28;20024;-60
2022/06/15 07:37:41;;;;;;;4.07;3.00;;;22.80;97.50;;;;;;5131792;28;20023;-59
2022/06/15 07:40:07;;;;;;;3.00;2.38;;;22.90;97.30;;;;;;5132046;28;20020;-58
2022/06/15 07:42:33;;;;;;;7.82;2.88;;;23.00;95.90;;;;;;5131688;28;20027;-62
2022/06/15 07:44:58;;;;;;;5.50;2.30;;;23.20;96.60;;;;;;5132209;28;20056;-60
2022/06/15 07:50:09;;;;;;;4.50;2.13;;;25.80;91.80;;;;;;5130941;28;20034;-56
2022/06/15 07:52:41;;;;;;;3.70;2.20;;;28.80;83.80;;;;;;5130709;28;20024;-58
2022/06/15 07:55:09;;;;;;;2.22;1.90;;;30.60;73.90;;;;;;5131966;28;20072;-62
2022/06/15 07:57:36;;;;;;;2.85;1.77;;;31.80;66.90;;;;;;5131489;28;20126;-60
2022/06/15 08:00:07;;;;;;;2.10;1.60;;;32.90;61.50;;;;;;5131178;28;20024;-61
2022/06/15 08:02:33;;;;;;;2.00;1.60;;;33.40;59.20;;;;;;5130779;27;20095;-62
2022/06/15 08:04:59;;;;;;;2.30;1.98;;;34.30;57.50;;;;;;5113583;28;20391;-64
2022/06/15 08:07:24;;;;;;;2.47;1.63;;;34.90;53.50;;;;;;5114687;28;20057;-61
2022/06/15 08:09:50;;;;;;;1.85;1.67;;;35.60;50.50;;;;;;5132048;28;20028;-53
2022/06/15 08:12:18;;;;;;;2.17;1.77;;;36.10;48.60;;;;;;5120483;28;20694;-60
2022/06/15 08:14:48;;;;;;;2.42;1.75;;;35.90;45.00;;;;;;5116015;28;20467;-62
2022/06/15 08:17:21;;;;;;;1.63;1.52;;;35.80;47.40;;;;;;5125171;27;20557;-65
2022/06/15 08:19:53;;;;;;;2.95;1.65;;;36.40;46.90;;;;;;5111143;28;20039;-58
2022/06/15 08:22:20;;;;;;;3.33;2.00;;;36.60;43.70;;;;;;5132723;27;20074;-62
2022/06/15 08:24:47;;;;;;;1.67;1.58;;;36.80;42.40;;;;;;5151284;27;20026;-65
2022/06/15 08:27:16;;;;;;;5.75;5.07;;;36.90;42.20;;;;;;5151540;27;20018;-63
2022/06/15 08:29:46;;;;;;;9.15;8.25;;;37.10;42.30;;;;;;5128068;27;20031;-65
2022/06/15 08:32:14;;;;;;;3.65;2.85;;;37.40;41.00;;;;;;5117474;28;20019;-57
2022/06/15 08:34:40;;;;;;;3.95;3.05;;;37.30;39.00;;;;;;5104907;28;20035;-67
2022/06/15 08:37:09;;;;;;;2.92;2.00;;;36.80;39.50;;;;;;5121105;27;20011;-65
2022/06/15 08:39:36;;;;;;;2.47;1.75;;;36.80;38.20;;;;;;5125245;27;20554;-56
2022/06/15 08:42:13;;;;;;;4.97;1.90;;;36.70;40.50;;;;;;5114067;28;20023;-61
2022/06/15 08:45:02;;;;;;;2.17;1.35;;;36.70;38.80;;;;;;5112876;28;20536;-62
2022/06/15 08:47:39;;;;;;;1.85;1.48;;;36.30;39.60;;;;;;5117541;27;20038;-64
2022/06/15 08:50:16;;;;;;;1.90;1.70;;;36.40;40.00;;;;;;5128706;27;20019;-61
2022/06/15 08:52:43;;;;;;;1.50;1.40;;;36.70;40.70;;;;;;5113211;28;20062;-59
2022/06/15 08:55:23;;;;;;;2.42;1.35;;;37.00;41.30;;;;;;5112890;28;20035;-59
2022/06/15 08:58:08;;;;;;;1.95;1.20;;;37.30;39.20;;;;;;5111414;28;20032;-60
2022/06/15 09:00:37;;;;;;;1.35;1.20;;;37.40;38.90;;;;;;5112334;28;20020;-64
2022/06/15 09:03:31;;;;;;;1.60;1.20;;;37.40;39.30;;;;;;5128962;27;20050;-64
2022/06/15 09:05:57;;;;;;;1.63;1.10;;;37.00;40.60;;;;;;5130756;27;20056;-61
2022/06/15 09:08:38;;;;;;;1.27;1.00;;;36.80;40.90;;;;;;5132472;27;20047;-60
2022/06/15 09:11:22;;;;;;;1.70;1.38;;;36.70;40.00;;;;;;5131883;27;20050;-62
2022/06/15 09:14:02;;;;;;;2.67;1.70;;;36.70;41.20;;;;;;5130841;27;20034;-57
2022/06/15 09:16:31;;;;;;;1.40;1.30;;;36.30;36.70;;;;;;5131297;27;20053;-60
2022/06/15 09:19:02;;;;;;;1.70;1.35;;;36.20;38.20;;;;;;5134490;27;20152;-67
2022/06/15 09:21:45;;;;;;;1.95;1.40;;;36.60;39.70;;;;;;5132656;27;20015;-62
2022/06/15 09:24:24;;;;;;;1.33;1.15;;;37.00;40.00;;;;;;5132271;27;20117;-57
2022/06/15 09:26:58;;;;;;;1.30;1.20;;;36.90;40.30;;;;;;5132764;27;20038;-58
2022/06/15 09:29:31;;;;;;;1.88;1.48;;;36.80;42.30;;;;;;5129168;27;20027;-61
2022/06/15 09:32:24;;;;;;;2.10;1.90;;;36.80;39.20;;;;;;5134053;27;20055;-63
2022/06/15 09:35:00;;;;;;;3.13;1.50;;;36.10;37.00;;;;;;5133426;27;20031;-57
2022/06/15 09:37:30;;;;;;;2.60;1.65;;;34.50;37.90;;;;;;5131692;27;20068;-61
2022/06/15 09:39:57;;;;;;;1.33;1.20;;;34.40;39.40;;;;;;5132459;27;20080;-54
2022/06/15 09:42:51;;;;;;;2.20;1.38;;;35.00;41.20;;;;;;5130400;27;20019;-64
2022/06/15 09:45:53;;;;;;;1.85;1.30;;;34.50;43.90;;;;;;5126858;27;20043;-55
2022/06/15 09:48:36;;;;;;;3.90;1.67;;;34.80;39.40;;;;;;5128965;27;20015;-65
2022/06/15 09:51:05;;;;;;;1.50;1.40;;;34.80;40.30;;;;;;5132498;27;20516;-53
2022/06/15 09:54:02;;;;;;;2.15;1.50;;;35.00;43.20;;;;;;5123833;27;20035;-64
2022/06/15 09:56:28;;;;;;;1.67;1.58;;;35.30;38.50;;;;;;5123164;27;20474;-65
2022/06/15 09:59:16;;;;;;;2.63;1.52;;;35.20;38.80;;;;;;5128294;27;20061;-59
2022/06/15 10:01:45;;;;;;;1.95;1.48;;;35.10;38.80;;;;;;5131500;27;20019;-55
2022/06/15 10:04:27;;;;;;;2.95;1.40;;;34.80;38.80;;;;;;5128517;27;20027;-58
2022/06/15 10:07:00;;;;;;;2.70;1.67;;;35.00;37.60;;;;;;5126440;27;20489;-60
2022/06/15 10:09:30;;;;;;;1.60;1.30;;;35.10;41.00;;;;;;5130055;27;20270;-59
2022/06/15 10:12:56;;;;;;;1.92;1.60;;;34.90;39.40;;;;;;5123604;27;20152;-60
2022/06/15 10:14:49;;;;;;;1.42;1.30;;;34.20;39.00;;;;;;5120807;27;21759;-64
2022/06/15 10:17:32;;;;;;;1.40;1.02;;;34.00;39.80;;;;;;5127070;27;20410;-61
2022/06/15 10:19:59;;;;;;;1.38;1.20;;;33.90;38.70;;;;;;5121690;27;20026;-56
2022/06/15 10:22:29;;;;;;;2.53;2.08;;;33.70;39.70;;;;;;5130704;27;20035;-60
2022/06/15 10:24:57;;;;;;;2.40;1.70;;;34.10;38.60;;;;;;5126532;27;20048;-60
2022/06/15 10:27:40;;;;;;;1.50;1.40;;;33.90;39.00;;;;;;5119156;27;20093;-60
2022/06/15 10:30:11;;;;;;;1.98;1.52;;;34.10;40.00;;;;;;5147763;27;20695;-59
2022/06/15 10:33:02;;;;;;;1.92;1.35;;;34.20;41.10;;;;;;5123047;27;20035;-60
2022/06/15 10:35:31;;;;;;;3.00;1.65;;;34.40;39.90;;;;;;5121093;27;20019;-58
2022/06/15 10:38:01;;;;;;;1.83;1.10;;;34.10;37.90;;;;;;5103175;27;20020;-59
2022/06/15 10:40:31;;;;;;;1.90;1.50;;;34.00;38.60;;;;;;5111627;28;20359;-59
2022/06/15 10:43:05;;;;;;;1.15;0.95;;;34.10;40.20;;;;;;5111702;28;20084;-59
2022/06/15 10:45:56;;;;;;;1.65;1.33;;;34.20;38.60;;;;;;5109671;28;20528;-59
2022/06/15 10:48:30;;;;;;;1.50;1.10;;;34.80;38.10;;;;;;5107300;27;20058;-59
2022/06/15 10:51:05;;;;;;;1.27;0.98;;;35.30;37.20;;;;;;5128200;27;20033;-59
2022/06/15 10:53:35;;;;;;;1.65;1.20;;;35.60;39.30;;;;;;5129650;27;20016;-59
2022/06/15 11:04:35;;;;;;;1.20;1.10;;;35.00;38.60;;;;;;5129646;27;20439;-59
2022/06/15 11:07:10;;;;;;;1.70;1.30;;;34.90;37.60;;;;;;5122925;27;20027;-59
2022/06/15 11:09:42;;;;;;;2.30;1.23;;;34.60;36.60;;;;;;5121740;27;20382;-60
2022/06/15 11:12:31;;;;;;;1.80;1.35;;;34.50;37.70;;;;;;5133544;27;20069;-59
2022/06/15 11:15:04;;;;;;;1.13;1.02;;;34.70;38.70;;;;;;5133458;27;20081;-60
2022/06/15 11:20:26;;;;;;;1.15;1.05;;;34.70;37.00;;;;;;5113105;28;20073;-60
2022/06/15 11:22:59;;;;;;;2.03;1.33;;;34.90;36.80;;;;;;5112215;28;20430;-60
2022/06/15 11:25:43;;;;;;;2.55;1.30;;;34.90;36.30;;;;;;5119063;27;20030;-60
2022/06/15 11:28:16;;;;;;;1.20;1.05;;;34.60;39.70;;;;;;5111571;28;20038;-59
2022/06/15 11:30:56;;;;;;;1.10;1.00;;;34.60;38.10;;;;;;5111582;28;20032;-60
2022/06/15 11:33:43;;;;;;;3.42;1.38;;;35.00;41.90;;;;;;5111335;28;20478;-59
2022/06/15 11:36:52;;;;;;;1.00;0.80;;;35.20;39.80;;;;;;5111513;28;20080;-60
2022/06/15 11:39:26;;;;;;;1.40;0.95;;;35.50;37.50;;;;;;5073460;28;20048;-59
2022/06/15 11:41:55;;;;;;;1.00;0.88;;;35.80;44.50;;;;;;5111465;28;20085;-59
2022/06/15 11:44:28;;;;;;;1.23;1.10;;;35.90;39.30;;;;;;5110573;28;20028;-60
2022/06/15 11:47:03;;;;;;;1.55;1.08;;;35.90;39.90;;;;;;5111664;28;20076;-59
2022/06/15 11:49:43;;;;;;;2.00;1.30;;;35.90;35.30;;;;;;5113088;28;20039;-59
2022/06/15 11:52:18;;;;;;;1.75;1.10;;;35.70;35.30;;;;;;5113145;28;20027;-59
2022/06/15 11:55:28;;;;;;;1.33;1.20;;;35.40;38.80;;;;;;5112178;28;20097;-60
2022/06/15 11:58:25;;;;;;;1.83;1.30;;;35.20;36.30;;;;;;5112360;28;20046;-58
2022/06/15 12:01:28;;;;;;;1.20;1.10;;;34.40;36.40;;;;;;5113356;28;20015;-59
2022/06/15 12:04:14;;;;;;;1.10;1.00;;;34.60;35.90;;;;;;5113274;28;20032;-59
2022/06/15 12:07:09;;;;;;;1.23;0.90;;;35.10;38.70;;;;;;5111244;28;20026;-59
2022/06/15 12:09:47;;;;;;;1.75;0.85;;;35.50;37.30;;;;;;5107655;28;20233;-59
2022/06/15 12:12:41;;;;;;;0.85;0.85;;;35.70;38.40;;;;;;5111350;28;20049;-60
2022/06/15 12:15:34;;;;;;;1.65;1.13;;;35.90;38.50;;;;;;5110579;28;20028;-60
2022/06/15 12:18:12;;;;;;;0.90;0.90;;;36.10;37.20;;;;;;5118634;27;20023;-59
2022/06/15 12:20:46;;;;;;;2.03;1.10;;;36.20;37.40;;;;;;5123790;27;20034;-60
2022/06/15 12:23:41;;;;;;;1.98;0.95;;;36.30;36.00;;;;;;5132356;27;20430;-59
2022/06/15 12:26:32;;;;;;;1.15;1.05;;;36.10;36.70;;;;;;5123903;27;20019;-59
2022/06/15 12:29:25;;;;;;;1.45;1.30;;;35.50;36.10;;;;;;5120401;27;20016;-60
2022/06/15 12:34:52;;;;;;;1.20;1.10;;;35.20;39.50;;;;;;5122875;27;20035;-60
2022/06/15 12:37:27;;;;;;;1.23;0.80;;;35.10;39.20;;;;;;5124019;27;20474;-59
2022/06/15 12:40:02;;;;;;;1.00;1.00;;;35.30;36.70;;;;;;5135701;27;20447;-58
2022/06/15 12:42:28;;;;;;;0.90;0.80;;;35.30;42.00;;;;;;5135802;27;20015;-59
2022/06/15 12:45:07;;;;;;;1.92;1.30;;;35.50;40.90;;;;;;5136326;27;20079;-60
2022/06/15 12:47:34;;;;;;;0.80;0.80;;;35.40;39.30;;;;;;5136530;27;20031;-59
2022/06/15 12:50:21;;;;;;;0.82;0.80;;;35.50;40.50;;;;;;5136492;27;20015;-59
2022/06/15 12:52:52;;;;;;;2.15;1.20;;;35.50;40.30;;;;;;5136982;27;20019;-60
2022/06/15 12:55:33;;;;;;;1.23;1.13;;;35.10;39.50;;;;;;5135312;27;20024;-60
2022/06/15 12:58:07;;;;;;;2.53;1.50;;;34.80;38.50;;;;;;5134871;27;20050;-59
2022/06/15 13:00:32;;;;;;;1.25;1.15;;;34.20;38.40;;;;;;5135212;27;20117;-59
2022/06/15 13:03:24;;;;;;;1.30;1.13;;;34.20;38.30;;;;;;5135193;27;20110;-59
2022/06/15 13:06:22;;;;;;;1.58;1.00;;;34.30;38.50;;;;;;5136015;27;20057;-60
2022/06/15 13:09:00;;;;;;;1.65;1.55;;;33.90;39.40;;;;;;5136867;27;20073;-60
2022/06/15 13:11:27;;;;;;;1.75;1.10;;;34.00;37.90;;;;;;5137050;27;20019;-60
2022/06/15 13:13:54;;;;;;;1.40;1.20;;;34.40;38.80;;;;;;5136603;27;20019;-60
2022/06/15 13:16:29;;;;;;;1.15;1.02;;;34.50;37.70;;;;;;5136529;27;20019;-58
2022/06/15 13:18:56;;;;;;;1.08;1.00;;;34.80;38.20;;;;;;5136770;27;20499;-59
2022/06/15 13:21:24;;;;;;;3.63;1.67;;;35.20;39.40;;;;;;5136438;27;20023;-60
2022/06/15 13:23:53;;;;;;;1.17;1.10;;;35.00;36.50;;;;;;5136733;27;20385;-59
2022/06/15 13:26:24;;;;;;;2.05;1.30;;;34.50;38.60;;;;;;5136476;27;20031;-58
2022/06/15 13:29:05;;;;;;;2.08;1.33;;;34.00;37.90;;;;;;5136309;27;20020;-59
2022/06/15 13:31:55;;;;;;;2.17;1.42;;;33.60;37.50;;;;;;5135970;27;20026;-59